Etusivu
METAR-TAF:

METAR-TAF

Lentoasemat :

Fort Liard, Luoteisterritoriot, Kanada

Leveyspiiri: 60-14N, Pituuspiiri: 123-29W, korkeus merenpinnasta: 215 m

Tämänhetkinen sää

Tämä raportti tehtiin 38 minuuttia sitten, kello 19.00 UTC
Tuuli 7 kn koillisesta
Lämpötila 21°C
Kosteus 78%
Ilmanpaine 1016 hPa
Näkyvyys: 9.7 km
Pilvistä 4000 ft:n korkeudessa
Pilvistä 10000 ft:n korkeudessa
savua

METAR: CYJF 221900Z 05007KT 6SM FU OVC040 OVC100 21/17 A3000 RMK FU8AC2 FH HGT ESTD SLP161 DENSITY ALT 1500FT

Aika: 13:38 (19:38 UTC)


TAF: puuttuu

Säähavainnot ja -ennusteet yli 4000 lentoasemalta (METAR- ja TAF-raportit).

Käytössä olevat sääasemat on merkitty karttaan keltaisilla ja punaisilla pisteillä.

Aseta hiiri pisteen päälle nähdäksesi sääaseman nimen.

Klikkaa sitten nähdäksesi säähavainnot ja -ennusteet.

Kartan vaihtaminen: klikkaa mustalla rastilla varustettuja vihreitä pisteitä, niin voit zoomata sisään; viivalla varustettua vihreää pistettä, niin voit zoomata ulos tai vihreitä nuolia, niin pääset viereisille kartoille.


METAR-TAF: